Time;durP1;ratioP1;P1;durP2;ratioP2;P2;SDS_P1;SDS_P2;PMS_P1;PMS_P2;Temp;Humidity;BMP_temperature;BMP_pressure;BME280_temperature;BME280_humidity;BME280_pressure;Samples;Min_cycle;Max_cycle;Signal;HPM_P1;HPM_P2
2024/03/24 00:02:11;;;;;;;3.72;1.00;;;14.80;34.10;;;;;;6263054;28;20107;-79
2024/03/24 00:05:11;;;;;;;8.10;1.63;;;14.80;34.20;;;;;;6281162;28;20081;-79
2024/03/24 00:08:12;;;;;;;4.15;1.20;;;14.80;34.50;;;;;;6281351;28;20461;-81
2024/03/24 00:11:13;;;;;;;4.85;1.10;;;14.70;34.70;;;;;;6278875;28;20016;-79
2024/03/24 00:14:15;;;;;;;2.50;1.05;;;14.70;34.90;;;;;;6284006;28;20028;-79
2024/03/24 00:17:15;;;;;;;6.95;1.52;;;14.70;35.10;;;;;;6295109;28;20043;-79
2024/03/24 00:20:17;;;;;;;12.48;1.45;;;14.70;35.00;;;;;;6282301;28;20017;-79
2024/03/24 00:23:19;;;;;;;3.45;1.10;;;14.70;35.10;;;;;;6278329;28;20028;-78
2024/03/24 00:26:19;;;;;;;2.95;1.15;;;14.70;35.30;;;;;;6284245;28;20028;-80
2024/03/24 00:29:22;;;;;;;6.22;1.20;;;14.70;35.40;;;;;;6301197;28;20120;-78
2024/03/24 00:32:23;;;;;;;3.85;1.45;;;14.70;35.60;;;;;;6268414;28;20027;-79
2024/03/24 00:35:24;;;;;;;5.15;1.45;;;14.70;35.80;;;;;;6265041;28;20468;-80
2024/03/24 00:38:26;;;;;;;2.25;1.33;;;14.70;35.90;;;;;;6282875;28;20478;-79
2024/03/24 00:41:26;;;;;;;2.22;0.85;;;14.70;36.10;;;;;;6284202;28;20055;-80
2024/03/24 00:44:28;;;;;;;9.18;1.70;;;14.70;36.20;;;;;;6286781;28;20025;-79
2024/03/24 00:47:30;;;;;;;8.30;1.08;;;14.70;36.20;;;;;;6301253;28;20075;-79
2024/03/24 00:50:32;;;;;;;2.90;1.27;;;14.70;36.10;;;;;;6271324;28;20043;-80
2024/03/24 00:53:35;;;;;;;11.30;1.40;;;14.70;36.10;;;;;;6288762;28;20042;-81
2024/03/24 00:56:35;;;;;;;3.88;1.30;;;14.70;36.20;;;;;;6281816;28;20016;-79
2024/03/24 00:59:36;;;;;;;3.90;1.60;;;14.70;36.40;;;;;;6281612;28;20470;-78
2024/03/24 01:02:37;;;;;;;7.00;2.17;;;14.70;36.80;;;;;;6281612;28;20111;-79
2024/03/24 01:05:39;;;;;;;6.57;1.35;;;14.70;36.50;;;;;;6281485;28;20455;-79
2024/03/24 01:08:41;;;;;;;6.32;1.70;;;14.70;36.60;;;;;;6279704;28;20017;-80
2024/03/24 01:11:42;;;;;;;10.50;2.03;;;14.60;36.80;;;;;;6302471;28;20039;-79
2024/03/24 01:14:45;;;;;;;6.93;1.40;;;14.60;36.80;;;;;;6303196;28;20069;-78
2024/03/24 01:17:46;;;;;;;3.45;1.27;;;14.60;36.80;;;;;;6278249;28;20083;-80
2024/03/24 01:20:47;;;;;;;4.43;1.40;;;14.60;36.90;;;;;;6278686;28;20040;-81
2024/03/24 01:23:48;;;;;;;4.68;0.90;;;14.60;36.80;;;;;;6265722;28;20039;-80
2024/03/24 01:26:49;;;;;;;1.98;0.57;;;14.70;36.40;;;;;;6263776;28;20135;-79
2024/03/24 01:29:50;;;;;;;7.22;0.93;;;14.70;35.90;;;;;;6296108;28;20086;-81
2024/03/24 01:32:51;;;;;;;0.47;0.30;;;14.70;35.40;;;;;;6287089;28;20016;-80
2024/03/24 01:35:52;;;;;;;3.00;0.95;;;14.70;34.50;;;;;;6278397;28;20028;-81
2024/03/24 01:38:54;;;;;;;5.57;0.90;;;14.80;34.30;;;;;;6303721;28;20103;-80
2024/03/24 01:41:54;;;;;;;2.65;0.80;;;14.90;34.00;;;;;;6286644;28;20064;-80
2024/03/24 01:44:55;;;;;;;0.60;0.57;;;14.90;33.80;;;;;;6297187;28;20064;-79
2024/03/24 01:47:58;;;;;;;4.07;0.93;;;14.90;33.70;;;;;;6263934;28;20067;-78
2024/03/24 01:51:08;;;;;;;3.80;0.70;;;14.90;33.70;;;;;;6274721;28;20116;-78
2024/03/24 01:54:11;;;;;;;2.20;0.43;;;15.00;33.60;;;;;;6252024;28;20073;-79
2024/03/24 01:57:12;;;;;;;2.33;0.63;;;15.00;33.60;;;;;;6291194;28;20057;-79
2024/03/24 02:00:16;;;;;;;5.80;0.40;;;15.00;33.40;;;;;;6262750;28;20016;-80
2024/03/24 02:03:17;;;;;;;1.15;0.47;;;15.00;33.40;;;;;;6300762;28;20049;-79
2024/03/24 02:06:18;;;;;;;1.48;0.30;;;15.00;33.40;;;;;;6284743;28;20452;-80
2024/03/24 02:09:19;;;;;;;2.50;0.68;;;15.00;33.50;;;;;;6284769;28;20020;-80
2024/03/24 02:12:19;;;;;;;1.98;0.50;;;15.00;33.50;;;;;;6259842;28;20032;-79
2024/03/24 02:15:21;;;;;;;4.25;0.90;;;15.00;33.60;;;;;;6263742;28;20039;-79
2024/03/24 02:18:23;;;;;;;1.77;0.30;;;14.90;33.60;;;;;;6302030;28;20027;-79
2024/03/24 02:21:26;;;;;;;7.88;0.90;;;15.00;33.70;;;;;;6300893;28;20507;-78
2024/03/24 02:24:27;;;;;;;0.63;0.30;;;15.00;33.80;;;;;;6283489;28;20725;-78
2024/03/24 02:27:29;;;;;;;1.67;0.57;;;14.90;33.90;;;;;;6299008;28;20032;-79
2024/03/24 02:30:30;;;;;;;1.48;0.30;;;14.90;34.10;;;;;;6266491;28;20078;-79
2024/03/24 02:33:31;;;;;;;4.72;0.52;;;14.90;34.20;;;;;;6280480;28;20012;-79
2024/03/24 02:36:32;;;;;;;1.27;0.52;;;14.90;34.30;;;;;;6296777;28;20038;-79
2024/03/24 02:39:34;;;;;;;3.33;0.75;;;14.90;34.20;;;;;;6280852;28;20016;-79
2024/03/24 02:42:35;;;;;;;2.28;0.82;;;14.90;34.30;;;;;;6266179;28;20012;-79
2024/03/24 02:45:36;;;;;;;6.82;0.88;;;15.00;34.20;;;;;;6267405;28;20201;-80
2024/03/24 02:48:39;;;;;;;1.30;0.80;;;15.00;34.30;;;;;;6281177;28;20024;-80
2024/03/24 02:51:40;;;;;;;3.55;0.65;;;15.00;34.40;;;;;;6280641;28;20103;-78
2024/03/24 02:54:41;;;;;;;1.88;0.68;;;14.90;34.50;;;;;;6278308;28;20413;-80
2024/03/24 02:57:43;;;;;;;3.85;0.80;;;14.80;34.60;;;;;;6277222;28;20043;-79
2024/03/24 03:00:47;;;;;;;4.50;0.70;;;14.80;34.70;;;;;;6263708;28;20032;-79
2024/03/24 03:03:48;;;;;;;2.20;0.77;;;14.80;34.80;;;;;;6279993;28;20413;-78
2024/03/24 03:06:49;;;;;;;4.50;0.80;;;14.80;34.90;;;;;;6300604;28;20103;-76
2024/03/24 03:09:51;;;;;;;1.38;0.32;;;14.80;35.00;;;;;;6276152;28;20085;-78
2024/03/24 03:12:51;;;;;;;0.43;0.40;;;14.80;35.00;;;;;;6280550;28;20086;-79
2024/03/24 03:15:54;;;;;;;0.70;0.30;;;14.80;35.10;;;;;;6263330;28;20020;-80
2024/03/24 03:18:55;;;;;;;1.95;0.70;;;14.80;35.10;;;;;;6264214;28;20078;-79
2024/03/24 03:21:55;;;;;;;1.10;0.70;;;14.80;35.20;;;;;;6262171;28;20108;-79
2024/03/24 03:24:57;;;;;;;4.40;0.70;;;14.80;35.30;;;;;;6269057;28;20854;-79
2024/03/24 03:27:59;;;;;;;8.48;0.88;;;14.80;35.30;;;;;;6269020;28;20032;-79
2024/03/24 03:31:00;;;;;;;3.28;0.45;;;14.80;35.40;;;;;;6296021;28;20504;-79
2024/03/24 03:34:01;;;;;;;5.32;1.02;;;14.70;35.60;;;;;;6284283;28;20038;-78
2024/03/24 03:37:02;;;;;;;3.58;0.82;;;14.70;35.70;;;;;;6281437;28;20028;-79
2024/03/24 03:40:04;;;;;;;3.28;0.80;;;14.70;35.80;;;;;;6293425;28;20827;-78
2024/03/24 03:43:05;;;;;;;1.38;0.40;;;14.60;35.70;;;;;;6268132;28;20031;-78
2024/03/24 03:46:07;;;;;;;0.65;0.25;;;14.60;35.80;;;;;;6281805;28;20104;-80
2024/03/24 03:49:14;;;;;;;1.85;0.68;;;14.60;35.70;;;;;;6284537;28;20051;-78
2024/03/24 03:52:15;;;;;;;1.48;0.30;;;14.70;35.70;;;;;;6299376;28;20063;-80
2024/03/24 03:55:17;;;;;;;1.85;0.38;;;14.70;35.70;;;;;;6263264;28;20564;-78
2024/03/24 03:58:22;;;;;;;1.17;0.25;;;14.70;35.70;;;;;;6297590;28;20048;-79
2024/03/24 04:01:26;;;;;;;1.70;0.60;;;14.60;35.80;;;;;;6292501;28;20040;-79
2024/03/24 04:04:29;;;;;;;0.60;0.30;;;14.60;35.80;;;;;;6306340;28;20166;-79
2024/03/24 04:07:31;;;;;;;0.38;0.15;;;14.60;35.80;;;;;;6280643;28;20080;-79
2024/03/24 04:10:33;;;;;;;4.35;0.52;;;14.60;35.80;;;;;;6276369;28;20036;-80
2024/03/24 04:13:33;;;;;;;1.45;0.22;;;14.60;35.80;;;;;;6276956;28;20560;-79
2024/03/24 04:16:38;;;;;;;0.93;0.50;;;14.60;35.80;;;;;;6300843;28;20016;-80
2024/03/24 04:19:39;;;;;;;2.47;0.38;;;14.70;35.70;;;;;;6285534;28;20028;-79
2024/03/24 04:22:43;;;;;;;1.33;0.45;;;14.70;35.60;;;;;;6284159;28;20061;-78
2024/03/24 04:25:49;;;;;;;1.80;0.47;;;14.70;35.60;;;;;;6279003;28;20116;-79
2024/03/24 04:28:51;;;;;;;1.05;0.35;;;14.70;35.60;;;;;;6260538;28;20449;-79
2024/03/24 04:31:52;;;;;;;2.13;0.47;;;14.60;35.60;;;;;;6309610;28;20020;-78
2024/03/24 04:34:54;;;;;;;1.10;0.52;;;14.60;35.70;;;;;;6300298;28;20061;-79
2024/03/24 04:37:56;;;;;;;8.77;0.55;;;14.60;35.60;;;;;;6264928;28;20020;-78
2024/03/24 04:41:00;;;;;;;3.55;0.77;;;14.50;35.60;;;;;;6261959;28;20039;-78
2024/03/24 04:44:01;;;;;;;5.95;0.55;;;14.50;35.60;;;;;;6254749;28;20199;-80
2024/03/24 04:47:02;;;;;;;0.70;0.30;;;14.50;35.60;;;;;;6271984;28;20024;-82
2024/03/24 04:50:05;;;;;;;1.90;0.30;;;14.50;35.70;;;;;;6282240;28;20455;-80
2024/03/24 04:53:08;;;;;;;1.13;0.30;;;14.50;35.70;;;;;;6276647;28;20019;-79
2024/03/24 04:56:10;;;;;;;4.53;0.60;;;14.50;35.70;;;;;;6295172;28;20495;-79
2024/03/24 04:59:11;;;;;;;3.60;0.40;;;14.50;35.70;;;;;;6265610;28;20058;-80
2024/03/24 05:02:12;;;;;;;2.03;0.30;;;14.50;35.70;;;;;;6286019;28;20035;-79
2024/03/24 05:05:15;;;;;;;1.95;0.60;;;14.40;35.70;;;;;;6286715;28;20028;-79
2024/03/24 05:08:17;;;;;;;0.70;0.38;;;14.40;35.80;;;;;;6294319;28;20719;-79
2024/03/24 05:11:18;;;;;;;0.30;0.30;;;14.40;35.80;;;;;;6274946;28;20051;-79
2024/03/24 05:14:20;;;;;;;3.35;0.50;;;14.40;36.00;;;;;;6241918;28;20131;-79
2024/03/24 05:17:22;;;;;;;3.38;0.30;;;14.30;36.10;;;;;;6296559;28;20028;-78
2024/03/24 05:20:25;;;;;;;1.38;0.40;;;14.30;36.20;;;;;;6266786;28;20032;-79
2024/03/24 05:23:26;;;;;;;1.10;0.52;;;14.30;36.30;;;;;;6276293;28;20036;-79
2024/03/24 05:26:27;;;;;;;1.50;0.35;;;14.20;36.30;;;;;;6268859;28;20858;-79
2024/03/24 05:29:29;;;;;;;1.77;0.55;;;14.20;36.40;;;;;;6268428;28;20040;-78
2024/03/24 05:32:30;;;;;;;0.88;0.30;;;14.20;36.40;;;;;;6302458;28;20603;-79
2024/03/24 05:35:31;;;;;;;0.40;0.40;;;14.20;36.50;;;;;;6277086;28;20028;-78
2024/03/24 05:38:32;;;;;;;1.40;0.50;;;14.20;36.50;;;;;;6280589;28;20031;-79
2024/03/24 05:41:33;;;;;;;2.15;0.75;;;14.20;36.40;;;;;;6273773;28;20027;-79
2024/03/24 05:44:34;;;;;;;2.97;0.20;;;14.20;36.40;;;;;;6278185;28;20036;-79
2024/03/24 05:47:36;;;;;;;3.17;0.68;;;14.30;36.50;;;;;;6266397;28;20024;-78
2024/03/24 05:50:36;;;;;;;1.40;0.70;;;14.20;36.50;;;;;;6286335;28;20365;-79
2024/03/24 05:53:37;;;;;;;0.95;0.30;;;14.20;36.50;;;;;;6289111;28;20086;-79
2024/03/24 05:56:39;;;;;;;0.80;0.60;;;14.30;36.60;;;;;;6272721;28;20016;-79
2024/03/24 05:59:42;;;;;;;2.45;0.45;;;14.30;36.70;;;;;;6290105;28;20115;-78
2024/03/24 06:02:43;;;;;;;1.40;0.68;;;14.30;36.80;;;;;;6309405;28;20051;-79
2024/03/24 06:05:46;;;;;;;4.25;0.65;;;14.30;36.90;;;;;;6299406;28;20207;-78
2024/03/24 06:08:47;;;;;;;1.75;0.43;;;14.30;37.10;;;;;;6288275;28;20043;-78
2024/03/24 06:11:49;;;;;;;0.10;0.10;;;14.30;37.70;;;;;;6252548;28;20024;-78
2024/03/24 06:14:51;;;;;;;3.53;0.43;;;14.30;37.10;;;;;;6305438;28;20419;-79
2024/03/24 06:17:53;;;;;;;2.58;0.60;;;14.30;37.60;;;;;;6273655;28;20463;-78
2024/03/24 06:20:57;;;;;;;0.73;0.40;;;14.30;37.10;;;;;;6287994;28;20040;-79
2024/03/24 06:23:57;;;;;;;1.70;0.40;;;14.30;37.10;;;;;;6275688;28;20039;-78
2024/03/24 06:26:58;;;;;;;2.45;0.60;;;14.30;37.10;;;;;;6290834;28;20020;-79
2024/03/24 06:29:59;;;;;;;3.42;0.73;;;14.30;37.20;;;;;;6298704;28;20028;-79
2024/03/24 06:33:00;;;;;;;1.35;0.35;;;14.30;37.10;;;;;;6324051;28;20073;-80
2024/03/24 06:36:02;;;;;;;1.23;0.82;;;14.30;37.20;;;;;;6269537;28;20020;-78
2024/03/24 06:39:04;;;;;;;1.70;0.28;;;14.40;37.10;;;;;;6289380;28;20051;-79
2024/03/24 06:42:08;;;;;;;1.70;0.60;;;14.40;37.10;;;;;;6307816;28;20077;-78
2024/03/24 06:45:15;;;;;;;1.75;0.45;;;14.40;37.10;;;;;;6260122;28;20032;-79
2024/03/24 06:48:16;;;;;;;0.60;0.30;;;14.50;37.10;;;;;;6298938;28;20015;-78
2024/03/24 06:51:19;;;;;;;1.85;0.45;;;14.50;37.10;;;;;;6279652;28;20103;-78
2024/03/24 06:54:20;;;;;;;0.82;0.40;;;14.40;37.00;;;;;;6275849;28;20491;-79
2024/03/24 06:57:22;;;;;;;6.32;0.68;;;14.50;37.10;;;;;;6285119;28;20094;-78
2024/03/24 07:00:23;;;;;;;5.07;0.40;;;14.50;36.90;;;;;;6296944;28;20119;-77
2024/03/24 07:03:25;;;;;;;3.78;0.90;;;14.50;36.90;;;;;;6277027;28;20024;-78
2024/03/24 07:06:26;;;;;;;0.85;0.30;;;14.60;36.80;;;;;;6260322;28;20452;-78
2024/03/24 07:09:28;;;;;;;3.22;0.50;;;14.60;36.80;;;;;;6281083;28;20027;-79
2024/03/24 07:12:29;;;;;;;7.88;0.75;;;14.60;36.80;;;;;;6285387;28;20051;-77
2024/03/24 07:15:30;;;;;;;0.73;0.40;;;14.60;36.90;;;;;;6291532;28;20397;-77
2024/03/24 07:18:32;;;;;;;3.40;1.00;;;14.50;37.20;;;;;;6283607;28;20028;-78
2024/03/24 07:21:35;;;;;;;1.02;0.15;;;14.80;37.30;;;;;;6265141;28;20035;-74
2024/03/24 07:24:36;;;;;;;0.82;0.35;;;14.80;37.60;;;;;;6278772;28;20067;-75
2024/03/24 07:27:37;;;;;;;0.38;0.30;;;14.60;39.40;;;;;;6278012;28;20035;-77
2024/03/24 07:30:38;;;;;;;5.63;0.93;;;14.20;40.90;;;;;;6296650;28;20464;-76
2024/03/24 07:33:39;;;;;;;0.93;0.25;;;13.90;42.70;;;;;;6284155;28;20424;-75
2024/03/24 07:36:40;;;;;;;2.72;0.68;;;13.50;44.30;;;;;;6285918;28;20752;-76
2024/03/24 07:39:41;;;;;;;6.63;0.50;;;13.10;46.00;;;;;;6274930;28;20028;-76
2024/03/24 07:42:43;;;;;;;1.92;0.40;;;12.80;47.00;;;;;;6286347;28;20114;-77
2024/03/24 07:45:44;;;;;;;0.45;0.30;;;12.70;47.40;;;;;;6269936;28;20076;-76
2024/03/24 07:48:44;;;;;;;0.43;0.20;;;12.60;47.60;;;;;;6287357;28;20082;-76
2024/03/24 07:51:45;;;;;;;2.55;0.30;;;12.60;47.50;;;;;;6304039;28;20519;-75
2024/03/24 07:54:47;;;;;;;0.40;0.15;;;12.70;47.40;;;;;;6299089;28;20017;-76
2024/03/24 07:57:47;;;;;;;0.20;0.20;;;12.80;47.10;;;;;;6289129;28;20120;-75
2024/03/24 08:00:48;;;;;;;6.90;0.60;;;12.90;46.60;;;;;;6300204;28;20064;-76
2024/03/24 08:03:49;;;;;;;1.83;0.08;;;13.00;46.00;;;;;;6274873;28;20173;-77
2024/03/24 08:06:51;;;;;;;0.10;0.10;;;12.90;46.00;;;;;;6273989;28;20088;-74
2024/03/24 08:09:51;;;;;;;0.40;0.20;;;12.90;45.90;;;;;;6278475;28;20122;-77
2024/03/24 08:12:52;;;;;;;1.27;0.85;;;12.90;45.40;;;;;;6260174;28;20017;-77
2024/03/24 08:15:53;;;;;;;5.05;0.57;;;12.90;45.30;;;;;;6279013;28;20099;-75
2024/03/24 08:18:54;;;;;;;0.20;0.20;;;12.80;45.40;;;;;;6284176;28;20028;-77
2024/03/24 08:21:56;;;;;;;0.55;0.20;;;12.90;45.60;;;;;;6305340;28;20020;-78
2024/03/24 08:24:57;;;;;;;0.40;0.30;;;12.90;45.80;;;;;;6263090;28;20033;-75
2024/03/24 08:27:59;;;;;;;0.95;0.40;;;12.90;46.10;;;;;;6303014;28;20016;-77
2024/03/24 08:31:00;;;;;;;1.90;0.22;;;12.90;46.40;;;;;;6287063;28;20038;-78
2024/03/24 08:34:01;;;;;;;1.02;0.30;;;12.90;46.70;;;;;;6283807;28;20016;-79
2024/03/24 08:37:02;;;;;;;0.20;0.20;;;12.90;46.70;;;;;;6277962;28;20111;-78
2024/03/24 08:40:05;;;;;;;2.58;0.40;;;13.10;46.60;;;;;;6267610;28;20020;-77
2024/03/24 08:43:05;;;;;;;0.35;0.30;;;13.40;45.90;;;;;;6286729;28;20029;-77
2024/03/24 08:46:06;;;;;;;1.55;0.40;;;13.50;45.10;;;;;;6267987;28;20043;-80
2024/03/24 08:49:08;;;;;;;0.28;0.28;;;13.70;44.80;;;;;;6278845;28;20090;-77
2024/03/24 08:52:09;;;;;;;0.80;0.30;;;13.80;44.20;;;;;;6279894;28;20028;-79
2024/03/24 08:55:10;;;;;;;0.30;0.30;;;13.80;44.30;;;;;;6266261;28;20423;-76
2024/03/24 08:58:12;;;;;;;1.38;0.63;;;13.80;44.10;;;;;;6298828;28;20012;-78
2024/03/24 09:01:13;;;;;;;1.45;0.13;;;14.00;43.80;;;;;;6278476;28;20614;-78
2024/03/24 09:04:14;;;;;;;1.50;0.35;;;14.10;43.40;;;;;;6301691;28;20024;-77
2024/03/24 09:07:16;;;;;;;0.55;0.28;;;14.30;42.80;;;;;;6302640;28;20024;-77
2024/03/24 09:10:17;;;;;;;1.17;0.35;;;14.50;42.00;;;;;;6300029;28;20058;-77
2024/03/24 09:13:18;;;;;;;1.83;0.50;;;14.60;41.40;;;;;;6303739;28;20016;-78
2024/03/24 09:16:21;;;;;;;1.77;0.65;;;14.70;41.10;;;;;;6282731;28;20120;-75
2024/03/24 09:19:22;;;;;;;0.30;0.30;;;14.80;40.70;;;;;;6289078;28;20103;-78
2024/03/24 09:22:23;;;;;;;1.92;0.25;;;14.80;40.40;;;;;;6276378;28;20077;-79
2024/03/24 09:25:26;;;;;;;7.43;0.40;;;14.70;40.80;;;;;;6289458;28;20401;-76
2024/03/24 09:28:28;;;;;;;1.77;0.68;;;14.70;41.30;;;;;;6259339;28;20056;-76
2024/03/24 09:31:31;;;;;;;1.23;0.38;;;14.70;41.80;;;;;;6297242;28;20020;-77
2024/03/24 09:34:33;;;;;;;0.43;0.25;;;14.70;41.70;;;;;;6267773;28;20018;-76
2024/03/24 09:37:34;;;;;;;6.72;0.52;;;14.70;41.50;;;;;;6270652;28;20188;-77
2024/03/24 09:40:36;;;;;;;1.55;0.30;;;14.70;41.30;;;;;;6249005;28;20028;-76
2024/03/24 09:43:37;;;;;;;6.45;0.70;;;14.70;41.30;;;;;;6276016;28;20169;-76
2024/03/24 09:46:42;;;;;;;1.75;0.57;;;14.70;41.60;;;;;;6283597;28;20033;-75
2024/03/24 09:49:47;;;;;;;3.40;0.30;;;14.70;41.80;;;;;;6257145;28;21601;-76
2024/03/24 09:52:48;;;;;;;2.30;0.40;;;14.70;41.70;;;;;;6288403;28;20066;-75
2024/03/24 09:55:50;;;;;;;2.20;0.28;;;14.80;41.70;;;;;;6274661;28;20421;-76
2024/03/24 09:58:51;;;;;;;0.75;0.38;;;14.80;41.50;;;;;;6277225;28;20365;-75
2024/03/24 10:01:52;;;;;;;0.20;0.20;;;14.90;41.60;;;;;;6264988;28;20649;-76
2024/03/24 10:04:57;;;;;;;0.82;0.40;;;15.10;41.30;;;;;;6290513;28;20058;-76
2024/03/24 10:08:01;;;;;;;2.88;0.68;;;15.30;40.80;;;;;;6299786;28;20377;-75
2024/03/24 10:11:27;;;;;;;3.63;0.43;;;15.40;40.10;;;;;;6286773;28;20020;-75
2024/03/24 10:14:28;;;;;;;1.95;0.50;;;15.50;39.40;;;;;;6291014;28;20740;-75
2024/03/24 10:17:29;;;;;;;2.10;0.80;;;15.50;38.90;;;;;;6282939;28;20070;-74
2024/03/24 10:20:31;;;;;;;2.33;0.50;;;15.50;38.70;;;;;;6263627;28;20040;-75
2024/03/24 10:23:31;;;;;;;1.55;0.40;;;15.60;38.50;;;;;;6267706;28;20182;-76
2024/03/24 10:26:36;;;;;;;1.08;0.30;;;15.60;38.20;;;;;;6281651;28;20032;-76
2024/03/24 10:29:37;;;;;;;1.00;0.30;;;15.50;38.10;;;;;;6270670;28;20069;-76
2024/03/24 10:32:38;;;;;;;1.00;0.30;;;15.40;38.10;;;;;;6264485;28;20065;-76
2024/03/24 10:45:07;;;;;;;7.18;0.43;;;15.20;37.60;;;;;;6293737;28;20036;-76
2024/03/24 10:48:35;;;;;;;0.43;0.20;;;15.10;37.80;;;;;;6297753;28;20052;-75
2024/03/24 10:52:07;;;;;;;1.52;0.60;;;15.00;37.80;;;;;;6302916;28;20098;-74
2024/03/24 10:55:34;;;;;;;2.95;0.52;;;15.00;38.00;;;;;;6293043;28;20371;-75
2024/03/24 10:59:04;;;;;;;3.63;0.30;;;14.90;38.00;;;;;;6301860;28;20126;-76
2024/03/24 11:02:30;;;;;;;2.57;0.30;;;14.80;38.20;;;;;;6286696;28;20487;-75
2024/03/24 11:05:56;;;;;;;0.40;0.38;;;14.90;38.20;;;;;;6300085;28;20344;-74
2024/03/24 11:13:46;;;;;;;2.40;0.50;;;15.70;36.90;;;;;;6290211;28;20028;-74
2024/03/24 11:17:13;;;;;;;3.95;0.30;;;16.00;36.50;;;;;;6298851;28;20036;-74
2024/03/24 11:20:40;;;;;;;2.10;0.57;;;16.40;36.10;;;;;;6281186;28;20630;-74
2024/03/24 11:24:31;;;;;;;0.63;0.25;;;16.80;35.20;;;;;;6302867;28;20048;-74
2024/03/24 11:28:06;;;;;;;2.17;0.63;;;17.00;34.10;;;;;;6162288;28;20408;-74
2024/03/24 11:31:33;;;;;;;0.35;0.28;;;17.40;33.20;;;;;;6147935;28;20031;-77
2024/03/24 11:35:02;;;;;;;0.85;0.65;;;17.60;31.80;;;;;;6156664;28;20038;-80
2024/03/24 11:38:05;;;;;;;0.13;0.13;;;17.60;31.50;;;;;;6157260;28;20047;-77
2024/03/24 11:41:06;;;;;;;0.82;0.60;;;17.80;31.60;;;;;;6163202;28;20198;-74
2024/03/24 11:44:08;;;;;;;0.13;0.13;;;18.00;31.70;;;;;;6142310;28;20114;-76
2024/03/24 11:47:09;;;;;;;0.35;0.28;;;18.10;31.70;;;;;;6143066;28;20411;-75
2024/03/24 11:50:11;;;;;;;0.22;0.22;;;18.10;31.90;;;;;;6140082;28;20122;-75
2024/03/24 11:53:13;;;;;;;0.68;0.40;;;18.30;31.90;;;;;;6142972;28;20089;-76
2024/03/24 11:56:17;;;;;;;2.35;0.40;;;18.40;31.70;;;;;;6128799;28;20125;-76
2024/03/24 11:59:19;;;;;;;0.65;0.47;;;18.50;31.70;;;;;;6157710;28;20085;-76
2024/03/24 12:02:21;;;;;;;2.05;0.70;;;18.40;31.60;;;;;;6156830;28;20080;-76
2024/03/24 12:05:24;;;;;;;0.65;0.38;;;18.10;31.70;;;;;;6245250;28;20044;-77
2024/03/24 12:08:27;;;;;;;0.28;0.28;;;17.80;32.00;;;;;;6281002;28;20015;-76
2024/03/24 12:11:29;;;;;;;1.73;0.68;;;17.60;32.20;;;;;;6294386;28;20040;-75
2024/03/24 12:14:32;;;;;;;12.80;0.57;;;17.30;32.40;;;;;;6270180;28;20497;-76
2024/03/24 12:17:33;;;;;;;0.60;0.32;;;17.00;32.80;;;;;;6254886;28;20039;-77
2024/03/24 12:20:36;;;;;;;2.65;0.38;;;16.80;33.40;;;;;;6275129;28;20541;-77
2024/03/24 12:23:39;;;;;;;0.88;0.55;;;16.60;33.70;;;;;;6296397;28;20111;-75
2024/03/24 12:26:40;;;;;;;0.57;0.50;;;16.40;34.50;;;;;;6240307;28;20036;-74
2024/03/24 12:29:57;;;;;;;0.80;0.50;;;16.10;35.70;;;;;;6278314;28;20023;-75
2024/03/24 12:33:01;;;;;;;3.20;0.63;;;15.70;36.80;;;;;;6276962;28;20107;-76
2024/03/24 12:36:04;;;;;;;1.05;0.73;;;15.30;37.60;;;;;;6268652;28;20024;-77
2024/03/24 12:39:05;;;;;;;0.82;0.30;;;15.20;38.00;;;;;;6258904;28;20377;-76
2024/03/24 12:42:13;;;;;;;1.30;0.40;;;15.00;38.50;;;;;;6266006;28;20023;-74
2024/03/24 12:45:15;;;;;;;0.70;0.40;;;14.80;39.00;;;;;;6274890;28;20519;-75
2024/03/24 12:48:19;;;;;;;1.65;0.50;;;14.50;40.00;;;;;;6306344;28;20104;-74
2024/03/24 12:51:20;;;;;;;0.40;0.22;;;14.30;40.80;;;;;;6284953;28;20496;-75
2024/03/24 12:54:25;;;;;;;1.58;0.50;;;14.10;42.30;;;;;;6286976;28;20055;-74
2024/03/24 12:57:27;;;;;;;1.20;0.65;;;13.90;43.60;;;;;;6250090;28;20184;-75
2024/03/24 13:00:30;;;;;;;0.90;0.30;;;13.80;44.60;;;;;;6282541;28;20372;-75
2024/03/24 13:03:34;;;;;;;1.10;0.15;;;13.60;45.50;;;;;;6273154;28;20528;-75
2024/03/24 13:06:38;;;;;;;3.50;0.60;;;14.00;45.80;;;;;;6270140;28;20148;-74
2024/03/24 13:09:39;;;;;;;3.88;0.60;;;15.20;43.70;;;;;;6267508;28;20070;-76
2024/03/24 13:12:41;;;;;;;1.98;0.40;;;17.10;40.80;;;;;;6306382;28;20028;-75
2024/03/24 13:15:43;;;;;;;0.20;0.20;;;18.80;36.90;;;;;;6267624;28;20020;-76
2024/03/24 13:19:01;;;;;;;2.85;0.50;;;19.30;34.40;;;;;;6250406;28;20013;-74
2024/03/24 13:22:06;;;;;;;1.75;0.43;;;19.30;33.40;;;;;;6295302;28;20023;-75
2024/03/24 13:25:10;;;;;;;0.93;0.38;;;18.60;33.60;;;;;;6284795;28;20028;-75
2024/03/24 13:28:13;;;;;;;0.52;0.35;;;17.90;34.50;;;;;;6281645;28;20035;-75
2024/03/24 13:31:14;;;;;;;2.33;0.60;;;17.30;35.00;;;;;;6282486;28;20012;-75
2024/03/24 13:34:16;;;;;;;1.48;0.85;;;17.30;35.20;;;;;;6268634;28;20055;-76
2024/03/24 13:37:28;;;;;;;3.20;0.45;;;17.30;35.10;;;;;;6281348;28;20085;-75
2024/03/24 13:40:57;;;;;;;1.67;0.40;;;17.60;34.60;;;;;;6285528;28;20107;-73
2024/03/24 13:44:13;;;;;;;0.17;0.15;;;18.20;33.40;;;;;;6278958;28;20103;-76
2024/03/24 13:47:34;;;;;;;0.40;0.40;;;18.20;32.90;;;;;;6270661;28;20592;-74
2024/03/24 13:50:40;;;;;;;0.73;0.30;;;18.00;33.00;;;;;;6255232;28;20030;-74
2024/03/24 13:53:48;;;;;;;0.45;0.20;;;17.70;32.80;;;;;;6277777;28;20133;-73
2024/03/24 13:56:49;;;;;;;0.77;0.20;;;17.40;32.70;;;;;;6271014;28;20119;-75
2024/03/24 13:59:50;;;;;;;0.80;0.50;;;17.10;33.00;;;;;;6280415;28;20323;-73
2024/03/24 14:02:51;;;;;;;1.98;0.57;;;16.90;33.20;;;;;;6263089;28;20035;-75
2024/03/24 14:05:52;;;;;;;0.52;0.30;;;16.70;33.40;;;;;;6289712;28;20079;-75
2024/03/24 14:08:55;;;;;;;1.98;0.50;;;16.70;33.60;;;;;;6269657;28;20535;-75
2024/03/24 14:11:56;;;;;;;0.45;0.30;;;16.70;33.30;;;;;;6274173;28;20031;-76
2024/03/24 14:15:11;;;;;;;4.32;0.50;;;16.70;32.90;;;;;;6248825;28;20448;-77
2024/03/24 14:18:58;;;;;;;1.38;0.43;;;16.70;32.90;;;;;;6277440;28;20416;-75
2024/03/24 14:22:24;;;;;;;2.92;0.30;;;16.60;32.70;;;;;;6280835;28;20027;-78
2024/03/24 14:25:25;;;;;;;0.98;0.30;;;16.50;32.70;;;;;;6294764;28;20019;-76
2024/03/24 14:28:27;;;;;;;0.60;0.20;;;16.40;32.90;;;;;;6243314;28;20043;-74
2024/03/24 14:31:30;;;;;;;0.47;0.30;;;16.40;33.00;;;;;;6265796;28;20020;-77
2024/03/24 14:34:33;;;;;;;1.17;0.30;;;16.50;32.90;;;;;;6254461;28;20024;-75
2024/03/24 14:37:59;;;;;;;0.70;0.30;;;16.60;32.90;;;;;;6256659;28;20468;-78
2024/03/24 14:41:30;;;;;;;0.85;0.50;;;16.70;32.70;;;;;;6296409;28;20028;-76
2024/03/24 14:45:23;;;;;;;3.10;0.45;;;16.80;32.80;;;;;;6269465;28;20177;-76
2024/03/24 14:48:27;;;;;;;1.48;0.20;;;16.90;32.60;;;;;;6184156;28;20150;-77
2024/03/24 14:51:29;;;;;;;1.95;0.30;;;16.90;32.40;;;;;;6168090;28;20062;-77
2024/03/24 14:54:30;;;;;;;0.13;0.13;;;16.80;32.50;;;;;;6153342;28;20037;-76
2024/03/24 14:57:31;;;;;;;1.75;0.50;;;16.80;32.70;;;;;;6168454;28;20030;-76
2024/03/24 15:00:35;;;;;;;0.65;0.20;;;16.80;32.70;;;;;;6167630;28;20158;-76
2024/03/24 15:03:38;;;;;;;0.93;0.57;;;16.90;32.40;;;;;;6184373;28;20527;-77
2024/03/24 15:06:40;;;;;;;0.80;0.50;;;17.00;32.50;;;;;;6167507;28;20052;-76
2024/03/24 15:09:43;;;;;;;1.33;0.40;;;17.00;32.40;;;;;;6168180;28;20100;-77
2024/03/24 15:12:46;;;;;;;0.70;0.40;;;17.00;32.30;;;;;;6169647;28;20109;-77
2024/03/24 15:15:49;;;;;;;1.20;0.30;;;17.00;32.50;;;;;;6184386;28;20026;-78
2024/03/24 15:18:52;;;;;;;2.10;0.70;;;17.00;32.50;;;;;;6186777;28;20793;-77
2024/03/24 15:21:53;;;;;;;1.45;0.57;;;16.80;32.70;;;;;;6186218;28;20104;-75
2024/03/24 15:24:54;;;;;;;0.68;0.30;;;16.80;33.10;;;;;;6281051;28;20108;-78
2024/03/24 15:27:55;;;;;;;3.20;0.85;;;16.70;33.40;;;;;;6272243;28;20034;-77
2024/03/24 15:30:56;;;;;;;0.35;0.28;;;16.60;33.50;;;;;;6269969;28;20065;-76
2024/03/24 15:33:57;;;;;;;2.70;0.40;;;16.50;33.60;;;;;;6277317;28;20460;-78
2024/03/24 15:37:05;;;;;;;2.65;0.38;;;16.40;33.80;;;;;;6271273;28;20021;-78
2024/03/24 15:40:07;;;;;;;2.10;0.40;;;16.30;34.00;;;;;;6264022;28;20008;-76
2024/03/24 15:43:11;;;;;;;1.48;0.60;;;16.10;34.20;;;;;;6278890;28;20013;-78
2024/03/24 15:46:12;;;;;;;2.70;0.50;;;16.10;34.40;;;;;;6268107;28;20550;-78
2024/03/24 15:49:13;;;;;;;2.78;0.75;;;16.00;34.70;;;;;;6286525;28;20476;-78
2024/03/24 15:52:15;;;;;;;5.38;0.88;;;16.00;35.00;;;;;;6271133;28;20043;-78
2024/03/24 15:55:19;;;;;;;1.30;0.50;;;15.90;35.10;;;;;;6262871;28;20047;-78
2024/03/24 15:58:41;;;;;;;3.33;0.52;;;15.90;35.40;;;;;;6281938;28;20107;-79
2024/03/24 16:02:03;;;;;;;0.30;0.30;;;15.80;35.50;;;;;;6270174;28;20020;-77
2024/03/24 16:05:06;;;;;;;1.08;0.63;;;15.70;35.60;;;;;;6265599;28;20065;-77
2024/03/24 16:08:07;;;;;;;1.20;0.40;;;15.70;35.60;;;;;;6264607;28;20133;-79
2024/03/24 16:11:17;;;;;;;1.75;0.43;;;15.60;35.60;;;;;;6253669;28;20462;-77